sensor_id;sensor_type;location;lat;lon;timestamp;P1;durP1;ratioP1;P2;durP2;ratioP2
32329;SDS011;18807;52.434;13.238;2023-11-19T00:12:57;11.70;;;7.40;;
32329;SDS011;18807;52.434;13.238;2023-11-19T00:20:31;9.95;;;6.50;;
32329;SDS011;18807;52.434;13.238;2023-11-19T00:28:06;9.07;;;6.50;;
32329;SDS011;18807;52.434;13.238;2023-11-19T00:35:40;9.23;;;6.13;;
32329;SDS011;18807;52.434;13.238;2023-11-19T00:43:17;9.55;;;6.32;;
32329;SDS011;18807;52.434;13.238;2023-11-19T00:50:54;9.75;;;6.28;;
32329;SDS011;18807;52.434;13.238;2023-11-19T00:58:30;9.27;;;6.27;;
32329;SDS011;18807;52.434;13.238;2023-11-19T01:06:04;10.27;;;6.05;;
32329;SDS011;18807;52.434;13.238;2023-11-19T01:13:40;8.85;;;6.30;;
32329;SDS011;18807;52.434;13.238;2023-11-19T01:21:14;9.15;;;5.85;;
32329;SDS011;18807;52.434;13.238;2023-11-19T01:28:50;8.40;;;5.80;;
32329;SDS011;18807;52.434;13.238;2023-11-19T01:36:25;11.40;;;5.90;;
32329;SDS011;18807;52.434;13.238;2023-11-19T01:44:00;9.23;;;6.47;;
32329;SDS011;18807;52.434;13.238;2023-11-19T01:51:34;7.93;;;5.50;;
32329;SDS011;18807;52.434;13.238;2023-11-19T01:59:11;9.32;;;5.47;;
32329;SDS011;18807;52.434;13.238;2023-11-19T02:06:46;7.43;;;5.40;;
32329;SDS011;18807;52.434;13.238;2023-11-19T02:14:24;9.18;;;5.25;;
32329;SDS011;18807;52.434;13.238;2023-11-19T02:21:59;6.82;;;4.90;;
32329;SDS011;18807;52.434;13.238;2023-11-19T02:29:35;8.13;;;4.80;;
32329;SDS011;18807;52.434;13.238;2023-11-19T02:37:09;7.35;;;4.75;;
32329;SDS011;18807;52.434;13.238;2023-11-19T02:44:45;6.50;;;5.05;;
32329;SDS011;18807;52.434;13.238;2023-11-19T02:52:21;8.95;;;4.70;;
32329;SDS011;18807;52.434;13.238;2023-11-19T02:59:57;8.65;;;4.72;;
32329;SDS011;18807;52.434;13.238;2023-11-19T03:07:31;9.32;;;4.38;;
32329;SDS011;18807;52.434;13.238;2023-11-19T03:15:08;8.38;;;5.60;;
32329;SDS011;18807;52.434;13.238;2023-11-19T03:22:43;9.55;;;5.60;;
32329;SDS011;18807;52.434;13.238;2023-11-19T03:30:20;7.97;;;4.97;;
32329;SDS011;18807;52.434;13.238;2023-11-19T03:38:05;7.88;;;5.13;;
32329;SDS011;18807;52.434;13.238;2023-11-19T03:45:41;8.27;;;5.13;;
32329;SDS011;18807;52.434;13.238;2023-11-19T03:53:15;8.95;;;5.78;;
32329;SDS011;18807;52.434;13.238;2023-11-19T04:00:51;10.55;;;5.50;;
32329;SDS011;18807;52.434;13.238;2023-11-19T04:08:25;8.55;;;5.90;;
32329;SDS011;18807;52.434;13.238;2023-11-19T04:16:01;10.45;;;6.30;;
32329;SDS011;18807;52.434;13.238;2023-11-19T04:23:36;9.27;;;5.78;;
32329;SDS011;18807;52.434;13.238;2023-11-19T04:31:14;11.18;;;5.80;;
32329;SDS011;18807;52.434;13.238;2023-11-19T04:38:48;8.80;;;5.50;;
32329;SDS011;18807;52.434;13.238;2023-11-19T04:46:25;8.88;;;5.43;;
32329;SDS011;18807;52.434;13.238;2023-11-19T04:53:59;10.38;;;6.28;;
32329;SDS011;18807;52.434;13.238;2023-11-19T05:01:35;9.07;;;6.07;;
32329;SDS011;18807;52.434;13.238;2023-11-19T05:09:09;9.10;;;5.43;;
32329;SDS011;18807;52.434;13.238;2023-11-19T05:16:50;9.85;;;5.90;;
32329;SDS011;18807;52.434;13.238;2023-11-19T05:24:27;9.75;;;6.13;;
32329;SDS011;18807;52.434;13.238;2023-11-19T05:32:04;7.18;;;4.93;;
32329;SDS011;18807;52.434;13.238;2023-11-19T05:39:40;9.48;;;5.82;;
32329;SDS011;18807;52.434;13.238;2023-11-19T05:47:15;7.23;;;5.70;;
32329;SDS011;18807;52.434;13.238;2023-11-19T05:54:50;8.32;;;5.47;;
32329;SDS011;18807;52.434;13.238;2023-11-19T06:02:27;11.43;;;6.93;;
32329;SDS011;18807;52.434;13.238;2023-11-19T06:10:01;12.65;;;7.75;;
32329;SDS011;18807;52.434;13.238;2023-11-19T06:17:37;11.52;;;6.93;;
32329;SDS011;18807;52.434;13.238;2023-11-19T06:25:12;13.07;;;7.18;;
32329;SDS011;18807;52.434;13.238;2023-11-19T06:32:48;13.85;;;7.47;;
32329;SDS011;18807;52.434;13.238;2023-11-19T06:40:23;18.15;;;9.80;;
32329;SDS011;18807;52.434;13.238;2023-11-19T06:47:59;16.38;;;9.88;;
32329;SDS011;18807;52.434;13.238;2023-11-19T06:55:36;20.08;;;9.52;;
32329;SDS011;18807;52.434;13.238;2023-11-19T07:03:12;20.08;;;10.30;;
32329;SDS011;18807;52.434;13.238;2023-11-19T07:10:47;25.67;;;11.80;;
32329;SDS011;18807;52.434;13.238;2023-11-19T07:18:22;12.37;;;7.27;;
32329;SDS011;18807;52.434;13.238;2023-11-19T07:25:56;9.07;;;6.38;;
32329;SDS011;18807;52.434;13.238;2023-11-19T07:49:27;8.68;;;4.68;;
32329;SDS011;18807;52.434;13.238;2023-11-19T07:57:15;8.10;;;5.40;;
32329;SDS011;18807;52.434;13.238;2023-11-19T08:05:08;5.63;;;3.67;;
32329;SDS011;18807;52.434;13.238;2023-11-19T08:12:42;5.38;;;3.50;;
32329;SDS011;18807;52.434;13.238;2023-11-19T08:20:40;5.97;;;4.15;;
32329;SDS011;18807;52.434;13.238;2023-11-19T08:28:27;6.22;;;5.03;;
32329;SDS011;18807;52.434;13.238;2023-11-19T08:36:06;6.35;;;4.15;;
32329;SDS011;18807;52.434;13.238;2023-11-19T08:52:03;6.28;;;4.28;;
32329;SDS011;18807;52.434;13.238;2023-11-19T08:59:42;5.85;;;4.72;;
32329;SDS011;18807;52.434;13.238;2023-11-19T09:07:20;5.50;;;3.88;;
32329;SDS011;18807;52.434;13.238;2023-11-19T09:14:57;5.00;;;3.63;;
32329;SDS011;18807;52.434;13.238;2023-11-19T09:22:35;4.70;;;3.60;;
32329;SDS011;18807;52.434;13.238;2023-11-19T09:30:14;3.95;;;3.17;;
32329;SDS011;18807;52.434;13.238;2023-11-19T09:38:04;3.60;;;2.50;;
32329;SDS011;18807;52.434;13.238;2023-11-19T09:45:48;5.95;;;2.90;;
32329;SDS011;18807;52.434;13.238;2023-11-19T09:53:31;3.20;;;2.08;;
32329;SDS011;18807;52.434;13.238;2023-11-19T10:01:14;5.25;;;2.08;;
32329;SDS011;18807;52.434;13.238;2023-11-19T10:08:55;3.53;;;2.33;;
32329;SDS011;18807;52.434;13.238;2023-11-19T10:16:37;6.35;;;2.25;;
32329;SDS011;18807;52.434;13.238;2023-11-19T10:24:15;6.63;;;2.28;;
32329;SDS011;18807;52.434;13.238;2023-11-19T10:31:55;2.97;;;2.10;;
32329;SDS011;18807;52.434;13.238;2023-11-19T10:39:55;5.40;;;2.53;;
32329;SDS011;18807;52.434;13.238;2023-11-19T10:47:30;7.40;;;3.03;;
32329;SDS011;18807;52.434;13.238;2023-11-19T10:55:11;11.05;;;3.63;;
32329;SDS011;18807;52.434;13.238;2023-11-19T11:02:49;14.27;;;3.85;;
32329;SDS011;18807;52.434;13.238;2023-11-19T11:10:26;11.50;;;3.88;;
32329;SDS011;18807;52.434;13.238;2023-11-19T11:18:00;13.68;;;4.70;;
32329;SDS011;18807;52.434;13.238;2023-11-19T11:25:42;23.70;;;4.80;;
32329;SDS011;18807;52.434;13.238;2023-11-19T11:33:25;11.32;;;4.18;;
32329;SDS011;18807;52.434;13.238;2023-11-19T11:41:18;12.23;;;4.88;;
32329;SDS011;18807;52.434;13.238;2023-11-19T11:49:00;13.55;;;4.68;;
32329;SDS011;18807;52.434;13.238;2023-11-19T11:56:40;22.70;;;4.78;;
32329;SDS011;18807;52.434;13.238;2023-11-19T12:04:15;10.75;;;5.75;;
32329;SDS011;18807;52.434;13.238;2023-11-19T12:19:26;10.95;;;4.57;;
32329;SDS011;18807;52.434;13.238;2023-11-19T12:27:01;20.55;;;5.40;;
32329;SDS011;18807;52.434;13.238;2023-11-19T12:34:39;11.27;;;3.70;;
32329;SDS011;18807;52.434;13.238;2023-11-19T12:42:15;20.88;;;4.60;;
32329;SDS011;18807;52.434;13.238;2023-11-19T12:49:57;15.65;;;4.40;;
32329;SDS011;18807;52.434;13.238;2023-11-19T12:57:39;20.67;;;4.45;;
32329;SDS011;18807;52.434;13.238;2023-11-19T13:05:24;15.02;;;3.60;;
32329;SDS011;18807;52.434;13.238;2023-11-19T13:13:02;35.00;;;16.38;;
32329;SDS011;18807;52.434;13.238;2023-11-19T13:20:38;18.92;;;4.20;;
32329;SDS011;18807;52.434;13.238;2023-11-19T13:28:12;20.13;;;4.25;;
32329;SDS011;18807;52.434;13.238;2023-11-19T13:35:47;22.73;;;6.07;;
32329;SDS011;18807;52.434;13.238;2023-11-19T13:43:21;24.92;;;12.00;;
32329;SDS011;18807;52.434;13.238;2023-11-19T13:50:58;33.60;;;13.75;;
32329;SDS011;18807;52.434;13.238;2023-11-19T13:58:34;15.68;;;7.10;;
32329;SDS011;18807;52.434;13.238;2023-11-19T14:06:10;21.35;;;4.80;;
32329;SDS011;18807;52.434;13.238;2023-11-19T14:13:45;24.65;;;4.82;;
32329;SDS011;18807;52.434;13.238;2023-11-19T14:21:23;17.63;;;4.15;;
32329;SDS011;18807;52.434;13.238;2023-11-19T14:29:00;17.02;;;4.13;;
32329;SDS011;18807;52.434;13.238;2023-11-19T14:36:53;35.78;;;7.05;;
32329;SDS011;18807;52.434;13.238;2023-11-19T14:44:27;20.88;;;4.40;;
32329;SDS011;18807;52.434;13.238;2023-11-19T14:52:03;41.77;;;12.20;;
32329;SDS011;18807;52.434;13.238;2023-11-19T14:59:39;19.63;;;6.57;;
32329;SDS011;18807;52.434;13.238;2023-11-19T15:07:15;32.23;;;12.53;;
32329;SDS011;18807;52.434;13.238;2023-11-19T15:14:49;14.23;;;5.20;;
32329;SDS011;18807;52.434;13.238;2023-11-19T15:22:25;15.23;;;4.63;;
32329;SDS011;18807;52.434;13.238;2023-11-19T15:29:59;13.55;;;4.93;;
32329;SDS011;18807;52.434;13.238;2023-11-19T15:37:35;12.60;;;4.30;;
32329;SDS011;18807;52.434;13.238;2023-11-19T15:45:09;16.95;;;4.32;;
32329;SDS011;18807;52.434;13.238;2023-11-19T15:52:47;17.98;;;5.55;;
32329;SDS011;18807;52.434;13.238;2023-11-19T16:00:26;15.32;;;3.88;;
32329;SDS011;18807;52.434;13.238;2023-11-19T16:08:04;21.40;;;4.83;;
32329;SDS011;18807;52.434;13.238;2023-11-19T16:15:38;19.17;;;4.20;;
32329;SDS011;18807;52.434;13.238;2023-11-19T16:23:13;12.00;;;4.60;;
32329;SDS011;18807;52.434;13.238;2023-11-19T16:30:49;11.30;;;4.18;;
32329;SDS011;18807;52.434;13.238;2023-11-19T16:38:26;13.93;;;4.30;;
32329;SDS011;18807;52.434;13.238;2023-11-19T16:46:01;15.23;;;4.07;;
32329;SDS011;18807;52.434;13.238;2023-11-19T16:53:38;15.30;;;3.90;;
32329;SDS011;18807;52.434;13.238;2023-11-19T17:01:13;10.15;;;3.50;;
32329;SDS011;18807;52.434;13.238;2023-11-19T17:08:51;13.07;;;4.40;;
32329;SDS011;18807;52.434;13.238;2023-11-19T17:16:25;11.48;;;4.00;;
32329;SDS011;18807;52.434;13.238;2023-11-19T17:24:00;12.17;;;4.57;;
32329;SDS011;18807;52.434;13.238;2023-11-19T17:31:35;13.85;;;6.35;;
32329;SDS011;18807;52.434;13.238;2023-11-19T17:39:11;23.30;;;5.07;;
32329;SDS011;18807;52.434;13.238;2023-11-19T17:46:44;17.30;;;5.20;;
32329;SDS011;18807;52.434;13.238;2023-11-19T17:54:20;16.60;;;4.53;;
32329;SDS011;18807;52.434;13.238;2023-11-19T18:01:54;22.98;;;6.35;;
32329;SDS011;18807;52.434;13.238;2023-11-19T18:09:31;17.95;;;5.88;;
32329;SDS011;18807;52.434;13.238;2023-11-19T18:17:05;23.15;;;6.43;;
32329;SDS011;18807;52.434;13.238;2023-11-19T18:24:50;14.00;;;5.88;;
32329;SDS011;18807;52.434;13.238;2023-11-19T18:32:25;10.85;;;4.80;;
32329;SDS011;18807;52.434;13.238;2023-11-19T18:40:07;14.00;;;5.57;;
32329;SDS011;18807;52.434;13.238;2023-11-19T18:47:42;13.13;;;4.60;;
32329;SDS011;18807;52.434;13.238;2023-11-19T18:55:18;13.83;;;6.53;;
32329;SDS011;18807;52.434;13.238;2023-11-19T19:02:52;14.45;;;5.97;;
32329;SDS011;18807;52.434;13.238;2023-11-19T19:10:30;17.60;;;5.30;;
32329;SDS011;18807;52.434;13.238;2023-11-19T19:18:05;12.43;;;4.35;;
32329;SDS011;18807;52.434;13.238;2023-11-19T19:25:41;13.80;;;4.80;;
32329;SDS011;18807;52.434;13.238;2023-11-19T19:33:15;12.68;;;3.83;;
32329;SDS011;18807;52.434;13.238;2023-11-19T19:40:50;18.97;;;3.90;;
32329;SDS011;18807;52.434;13.238;2023-11-19T19:48:24;15.82;;;4.03;;
32329;SDS011;18807;52.434;13.238;2023-11-19T19:56:00;13.63;;;3.72;;
32329;SDS011;18807;52.434;13.238;2023-11-19T20:03:34;14.07;;;3.63;;
32329;SDS011;18807;52.434;13.238;2023-11-19T20:11:10;10.10;;;3.60;;
32329;SDS011;18807;52.434;13.238;2023-11-19T20:18:45;16.92;;;3.72;;
32329;SDS011;18807;52.434;13.238;2023-11-19T20:26:21;10.87;;;3.17;;
32329;SDS011;18807;52.434;13.238;2023-11-19T20:33:55;15.55;;;4.13;;
32329;SDS011;18807;52.434;13.238;2023-11-19T20:41:30;13.90;;;3.00;;
32329;SDS011;18807;52.434;13.238;2023-11-19T20:49:05;9.52;;;2.67;;
32329;SDS011;18807;52.434;13.238;2023-11-19T20:56:41;9.80;;;3.40;;
32329;SDS011;18807;52.434;13.238;2023-11-19T21:04:15;8.43;;;2.63;;
32329;SDS011;18807;52.434;13.238;2023-11-19T21:11:51;10.07;;;2.85;;
32329;SDS011;18807;52.434;13.238;2023-11-19T21:19:25;9.93;;;2.65;;
32329;SDS011;18807;52.434;13.238;2023-11-19T21:27:19;8.38;;;3.35;;
32329;SDS011;18807;52.434;13.238;2023-11-19T21:34:54;9.68;;;2.42;;
32329;SDS011;18807;52.434;13.238;2023-11-19T21:42:32;8.63;;;2.77;;
32329;SDS011;18807;52.434;13.238;2023-11-19T21:50:06;5.30;;;2.90;;
32329;SDS011;18807;52.434;13.238;2023-11-19T21:57:42;7.30;;;2.67;;
32329;SDS011;18807;52.434;13.238;2023-11-19T22:05:16;8.05;;;3.40;;
32329;SDS011;18807;52.434;13.238;2023-11-19T22:12:56;8.02;;;2.40;;
32329;SDS011;18807;52.434;13.238;2023-11-19T22:20:30;8.80;;;3.28;;
32329;SDS011;18807;52.434;13.238;2023-11-19T22:28:09;10.13;;;3.55;;
32329;SDS011;18807;52.434;13.238;2023-11-19T22:35:44;7.53;;;2.53;;
32329;SDS011;18807;52.434;13.238;2023-11-19T22:43:20;8.87;;;3.20;;
32329;SDS011;18807;52.434;13.238;2023-11-19T22:50:54;11.45;;;2.72;;
32329;SDS011;18807;52.434;13.238;2023-11-19T22:58:30;10.73;;;4.05;;
32329;SDS011;18807;52.434;13.238;2023-11-19T23:06:04;12.35;;;3.17;;
32329;SDS011;18807;52.434;13.238;2023-11-19T23:13:40;12.35;;;2.72;;
32329;SDS011;18807;52.434;13.238;2023-11-19T23:21:14;12.43;;;2.95;;
32329;SDS011;18807;52.434;13.238;2023-11-19T23:28:52;6.05;;;2.95;;
32329;SDS011;18807;52.434;13.238;2023-11-19T23:36:41;9.30;;;3.42;;
32329;SDS011;18807;52.434;13.238;2023-11-19T23:44:16;12.13;;;3.43;;
32329;SDS011;18807;52.434;13.238;2023-11-19T23:51:53;10.98;;;2.92;;
32329;SDS011;18807;52.434;13.238;2023-11-19T23:59:29;6.93;;;2.72;;
